Oribe Lozano

Scout - Club America
8 Okt 2028
Sonntag
Verarbeitung

Persönlichkeit

Anpassungsfähigkeit (3) Ehrgeiz (14) Kontroverse (15) Loyalität (1) Druck (2) Professionalität (17) Fairness (8) Temperament (11)

Profil

Trainerstil Demokratisch
Lizenz Nationale B
Entschlossenheit 12
Menschenführung 12
Motivation 6
Disziplin 15
Arbeitszufriedenheit
100%
Ermüdung
0%
Rolle Scout
Gehalt 81.1K p/W
Vertrag 14.03.2029

Leistung

Verhalten Gut
Trainingseffektivität
49%
Spielerentwicklung
35%
Verletzungsprävention
70%
Taktische Umsetzung
60%

Letzte Ereignisse

Spieler begutachtet jetzt
Spieler begutachtet jetzt
Nahm an einer Scouting-Besprechung teil jetzt
Nahm an einer Scouting-Besprechung teil jetzt
Empfahl ein Transferziel jetzt
Empfahl ein Transferziel jetzt
Spieler begutachtet 7T her
Spieler begutachtet 7T her

Aktuell beobachtet

269
Spieler Verein Status Fähigkeit Vertrauen Beobachtet Zuletzt beobachtet Letzte Stimme
Andrés Martín Racing Santander Aktiv 141 / 135 40% 3 07.10.2028 -
Riku Yamane Yokohama F. Marinos Aktiv 144 / 131 40% 2 07.10.2028 -
Diego Luna Real Salt Lake Aktiv 143 / 132 40% 1 07.10.2028 -
Guille Rosas Boca Juniors Aktiv 146 / 137 40% 2 05.10.2028 -
Ritsu Doan Gamba Osaka Aktiv 164 / 148 40% 3 05.10.2028 -
Endrick Boca Juniors Aktiv 170 / 166 40% 1 05.10.2028 -
Talles Magno New York City Aktiv 130 / 130 40% 2 02.10.2028 -
Samuel Lucero River Plate Aktiv 129 / 135 40% 1 02.10.2028 -
Benja Cremaschi Inter Miami CF Aktiv 134 / 135 40% 1 02.10.2028 -
Lukas Kelly-Heald Wellington Phoenix Aktiv 125 / 127 40% 1 02.10.2028 -
Oussama Idrissi Malmo FF Aktiv 148 / 127 40% 4 01.10.2028 -
Juan Pablo Domínguez Monterrey Aktiv 131 / 128 40% 1 01.10.2028 -
Bongokuhle Hlongwane LA Galaxy Aktiv 129 / 139 40% 1 01.10.2028 -
Jonathan Bamba Chicago Fire Aktiv 130 / 127 40% 3 29.09.2028 -
Tajon Buchanan Villarreal Aktiv 154 / 145 40% 1 29.09.2028 -
Santiago Esquivel Banfield Aktiv 111 / 125 40% 2 27.09.2028 -
Luca Langoni Columbus Crew Aktiv 127 / 135 40% 4 27.09.2028 -
Breno Bidon Corinthians Aktiv 127 / 121 40% 2 27.09.2028 -
Riqui Puig CF Montreal Aktiv 142 / 142 40% 2 27.09.2028 -
Nahuel Tenaglia Banfield Aktiv 149 / 129 40% 1 27.09.2028 -
Kauã Moraes Flamengo Aktiv 135 / 128 40% 1 27.09.2028 -
Juan José Arias Real Salt Lake Aktiv 120 / 128 40% 2 26.09.2028 -
Mateo Mendoza Yokohama F. Marinos Aktiv 141 / 132 40% 1 26.09.2028 -
Lewis Miley Newcastle United Aktiv 154 / 155 40% 1 26.09.2028 -
Facundo Torres Millonarios Aktiv 138 / 147 40% 3 24.09.2028 -
Nuno Moreira Vasco da Gama Aktiv 123 / 137 40% 3 23.09.2028 -
Telasco Segovia Inter Miami CF Aktiv 146 / 135 40% 1 23.09.2028 -
Martín Ojeda Orlando City Aktiv 147 / 137 40% 1 23.09.2028 -
Antony Portland Timbers Aktiv 146 / 143 40% 2 22.09.2028 -
Kevin Zenón Boca Juniors Aktiv 136 / 144 40% 2 22.09.2028 -
Ryan Gauld Vancouver Whitecaps Aktiv 130 / 140 40% 1 22.09.2028 -
Fran García Betis Aktiv 161 / 156 40% 2 21.09.2028 -
Uriel Antuna Dinamo Moscow Aktiv 139 / 130 40% 1 21.09.2028 -
Santiago Murillo Atletico Nacional Aktiv 123 / 146 40% 2 20.09.2028 -
Hamzat Ojediran Colorado Rapids Aktiv 134 / 131 40% 3 20.09.2028 -
Gérson Cruzeiro Aktiv 152 / 151 40% 1 20.09.2028 -
Luis Sinisterra Cruzeiro Aktiv 135 / 148 40% 1 20.09.2028 -
Mauricio Amaro Atlanta United FC Aktiv 124 / 133 40% 1 20.09.2028 -
Allan Saint-Maximin Charlotte Football Club Aktiv 145 / 135 40% 2 18.09.2028 -
Samuel Lino Flamengo Aktiv 150 / 146 40% 1 18.09.2028 -
Bitello Universidad de Chile Aktiv 144 / 137 40% 2 17.09.2028 -
Caio Vidal Deportivo Pereira Aktiv 147 / 138 40% 1 17.09.2028 -
Toni Fruk Talleres Aktiv 142 / 137 40% 2 16.09.2028 -
Christian Kashima Antlers Aktiv 124 / 149 40% 1 15.09.2028 -
Bojan Kovačević Cádiz Aktiv 137 / 142 40% 2 14.09.2028 -
Markus Karlsson Hammarby Aktiv 130 / 117 40% 1 14.09.2028 -
Erick Pulga Bahia Aktiv 135 / 121 40% 5 13.09.2028 -
Leandro Andrade Chicago Fire Aktiv 143 / 136 40% 3 13.09.2028 -
Camilo Martinez Cortulua Aktiv 142 / 126 40% 2 12.09.2028 -
Izan Merino Málaga Aktiv 142 / 132 40% 1 12.09.2028 -
Shuto Nakano Sanfrecce Hiroshima Aktiv 144 / 129 40% 1 10.09.2028 -
Santiago Sosa Yung Defensa y Justicia Aktiv 120 / 118 40% 1 10.09.2028 -
Fabricio Corbalán Gimnasia La Plata Aktiv 112 / 126 40% 1 10.09.2028 -
Mario García Racing Santander Aktiv 136 / 134 40% 1 10.09.2028 -
Alexey Miranchuk Atlanta United FC Aktiv 144 / 145 40% 2 07.09.2028 -
Joshua Rawlins Melbourne Victory Aktiv 128 / 127 40% 2 07.09.2028 -
Lyle Foster Rosenborg Aktiv 145 / 135 40% 1 07.09.2028 -
Andrés Gómez Vasco da Gama Aktiv 144 / 133 40% 3 05.09.2028 -
Adrien Truffert Flamengo Aktiv 167 / 153 40% 1 05.09.2028 -
Tobías Ramírez River Plate Aktiv 133 / 146 40% 2 04.09.2028 -
Agustín Giay Palmeiras Aktiv 148 / 129 40% 1 04.09.2028 -
Liel Abada Inter Miami CF Aktiv 148 / 140 40% 1 04.09.2028 -
Pape Guèye Villarreal Aktiv 163 / 164 40% 1 04.09.2028 -
Jozhua Vertrouwd Rayo Vallecano Aktiv 133 / 134 40% 1 30.08.2028 -
Moussa N'Diaye Al Nasr Aktiv 125 / 120 40% 1 30.08.2028 -
Dean Huijsen Las Palmas Aktiv 148 / 162 40% 1 29.08.2028 -
Igor Serrote Al Ain Aktiv 143 / 137 40% 1 29.08.2028 -
Alejo Córdoba Tigre Aktiv 111 / 128 40% 1 29.08.2028 -
Ignacio Perruzzi San Lorenzo Aktiv 129 / 130 40% 1 28.08.2028 -
Abdoulkarim Traoré Al Ain Aktiv 135 / 138 40% 1 28.08.2028 -
Jonathan De Irastorza Independiente Aktiv 134 / 138 40% 1 28.08.2028 -
Mbekezeli Mbokazi Chicago Fire Aktiv 133 / 140 40% 1 26.08.2028 -
Thiago Silvero Vélez Aktiv 132 / 141 40% 1 26.08.2028 -
Pedro de la Vega Columbus Crew Aktiv 142 / 139 40% 2 25.08.2028 -
Marius Marin Al Nasr Verloren 136 / 146 40% 1 25.08.2028 -
Marquinhos APOEL Aktiv 142 / 141 40% 2 22.08.2028 -
Zakaria El Ouahdi Hamburger SV Aktiv 143 / 140 40% 1 22.08.2028 -
Musa Barrow ES Setif Aktiv 135 / 146 40% 1 22.08.2028 -
Tommaso Barbieri Cremonese Aktiv 139 / 137 40% 1 20.08.2028 -
Che Adams Torino Aktiv 141 / 147 40% 1 20.08.2028 -
Jayden Addai Bari Aktiv 149 / 138 40% 2 19.08.2028 -
Faustino Anjorin Hellas Verona Aktiv 137 / 132 40% 1 19.08.2028 -
Antoine Hainaut Venezia Aktiv 143 / 132 40% 1 19.08.2028 -
Exequiel Palacios Lazio Aktiv 161 / 159 40% 1 18.08.2028 -
Gonzalo Plata Nacional Aktiv 153 / 150 40% 1 18.08.2028 -
Tommaso Berti Cesena Aktiv 143 / 134 40% 1 17.08.2028 -
Alessio Zerbin Frosinone Aktiv 138 / 134 40% 1 17.08.2028 -
Tomáš Suslov Hellas Verona Aktiv 139 / 134 40% 1 17.08.2028 -
Gaspar Gijón Aktiv 151 / 144 40% 6 16.08.2028 -
Pablo Fornals Betis Aktiv 154 / 147 40% 1 16.08.2028 -
Alfon Sevilla Aktiv 153 / 146 40% 1 16.08.2028 -
Hugo Álvarez Celta Aktiv 154 / 151 40% 3 14.08.2028 -
Manu Fuster Las Palmas Aktiv 140 / 136 40% 4 14.08.2028 -
Martim Neto Elche Aktiv 138 / 140 40% 2 14.08.2028 -
Javi Ontiveros Cádiz Aktiv 144 / 136 40% 2 13.08.2028 -
Arnaut Danjuma Deportivo La Coruña Aktiv 148 / 153 40% 2 13.08.2028 -
Donny van de Beek Girona Aktiv 150 / 144 40% 2 12.08.2028 -
Oriol Rey Levante Aktiv 131 / 135 40% 1 12.08.2028 -
Santi Comesaña Villarreal Aktiv 161 / 152 40% 1 12.08.2028 -
Álvaro Fidalgo Betis Aktiv 154 / 144 40% 2 11.08.2028 -
Jorge De Frutos Rayo Vallecano Aktiv 158 / 145 40% 2 10.08.2028 -
Giovani Lo Celso Betis Aktiv 155 / 155 40% 1 10.08.2028 -
Julien Ponceau Valladolid Aktiv 139 / 131 40% 1 10.08.2028 -
Iván Martín Racing Santander Aktiv 151 / 147 40% 2 09.08.2028 -
Pablo Martínez Málaga Aktiv 138 / 137 40% 1 09.08.2028 -
Marcus Tavernier Bournemouth Aktiv 148 / 145 40% 1 08.08.2028 -
Ilias Chair Queens Park Rangers Aktiv 134 / 143 40% 1 08.08.2028 -
Riki Deportivo La Coruña Aktiv 135 / 140 40% 1 07.08.2028 -
Marvin Park Las Palmas Aktiv 148 / 143 40% 1 06.08.2028 -
Pedro Díaz Rayo Vallecano Aktiv 150 / 148 40% 1 06.08.2028 -
Callum Brittain Middlesbrough Aktiv 144 / 139 40% 2 05.08.2028 -
Demarai Gray Birmingham Aktiv 146 / 134 40% 2 02.08.2028 -
Andrey Santos Bolton Wanderers Aktiv 149 / 157 40% 1 02.08.2028 -
Curro Burgos Aktiv 143 / 144 40% 2 01.08.2028 -
Vitaly Janelt Derby County Aktiv 149 / 148 40% 2 31.07.2028 -
James Justin Leeds United Aktiv 145 / 145 40% 2 31.07.2028 -
Jhon Solís Birmingham Aktiv 145 / 138 40% 1 30.07.2028 -
Enric Franquesa Leganés Aktiv 144 / 143 40% 1 30.07.2028 -
Adrià Pedrosa Sevilla Aktiv 150 / 136 40% 1 28.07.2028 -
Edu Expósito Espanyol Aktiv 141 / 141 40% 1 25.07.2028 -
Hwang Hee-Chan Wolverhampton Aktiv 144 / 133 40% 1 25.07.2028 -
Sorba Thomas Stoke City Aktiv 146 / 141 40% 1 24.07.2028 -
Jason Knight Bristol City Aktiv 139 / 136 40% 1 24.07.2028 -
Carlos Moreno Pachuca Verloren 139 / 135 65% 1 10.07.2028 -
Carlos Alcaraz Stoke City Aktiv 161 / 159 40% 4 30.06.2028 -
Brais Méndez RC Lens Aktiv 157 / 161 40% 1 30.06.2028 -
Fran Beltrán Girona Aktiv 150 / 143 40% 1 30.06.2028 -
Alfredo Morelos Pachuca Aktiv 117 / 119 65% 1 19.06.2028 Befürworten
Mawuli Mensah Ceuta Aktiv 117 / 119 40% 1 19.06.2028 -
Lamare Bogarde Reading Aktiv 137 / 142 40% 1 19.06.2028 -
Carlos Acevedo Santos Laguna Verloren 133 / 137 65% 1 12.06.2028 -
Lucas Di Yorio Santos Laguna Aktiv 128 / 109 65% 1 03.06.2028 Befürworten
Diego Barbosa Toluca Verloren 128 / 122 65% 1 02.06.2028 -
Jon Morcillo Almería Aktiv 148 / 130 40% 3 01.06.2028 -
Maroan Sannadi Athletic Bilbao Aktiv 137 / 144 40% 1 01.06.2028 -
Isaac Romero Sevilla Aktiv 151 / 152 40% 1 01.06.2028 -
David Mella Deportivo La Coruña Aktiv 133 / 139 40% 6 27.05.2028 -
Jofre Carreras Espanyol Aktiv 146 / 148 40% 5 26.05.2028 -
Buba Sangaré Elche Aktiv 131 / 132 40% 2 26.05.2028 -
Jesús Areso Athletic Bilbao Aktiv 147 / 152 40% 1 26.05.2028 -
Hervin Goyes Deportivo Pasto Aktiv 106 / 104 40% 1 26.05.2028 -
Jan Bürger Northampton Town Aktiv 125 / 125 40% 1 26.05.2028 -
Sergio Arribas Rayo Vallecano Aktiv 137 / 144 40% 1 24.05.2028 -
Omar El Hilali Espanyol Aktiv 158 / 156 40% 2 23.05.2028 -
Désiré Doué Stade Brestois Aktiv 159 / 173 40% 2 22.05.2028 -
Emile Smith Rowe Cardiff City Aktiv 160 / 156 40% 4 22.05.2028 -
Ilias Akhomach Athletic Bilbao Aktiv 146 / 146 40% 4 21.05.2028 -
Kang-In Lee Villarreal Aktiv 165 / 154 40% 2 21.05.2028 -
David Larrubia Málaga Aktiv 134 / 141 40% 3 20.05.2028 -
Ramón Terrats Getafe Aktiv 150 / 152 40% 1 20.05.2028 -
Luka Sučić Andorra Aktiv 149 / 144 40% 1 20.05.2028 -
André Almeida Valencia Aktiv 149 / 146 40% 1 19.05.2028 -
Aimar Osasuna Aktiv 151 / 145 40% 6 18.05.2028 -
Malick Fofana Sunderland Aktiv 150 / 155 40% 1 18.05.2028 -
Miguel Rodríguez Alavés Aktiv 131 / 134 40% 1 17.05.2028 -
Celías Ingenthron Platense Aktiv 127 / 132 40% 1 17.05.2028 -
Augusto Bando Ascoli Aktiv 105 / 110 40% 1 17.05.2028 -
Jaden Philogene Wolverhampton Aktiv 142 / 148 40% 2 14.05.2028 -
Nico Melamed Almería Aktiv 137 / 134 40% 1 14.05.2028 -
Pau Cubarsí Real Sociedad Aktiv 155 / 161 40% 3 13.05.2028 -
Josh Nichols Oldham Athletic Aktiv 123 / 121 40% 1 13.05.2028 -
Riquelme Thompson-Jones Accrington Stanley Aktiv 103 / 108 40% 1 10.05.2028 -
Tobiáš Pališčák Zlin Aktiv 103 / 99 40% 2 08.05.2028 -
Félix Correia LOSC Lille Aktiv 139 / 140 40% 1 08.05.2028 -
Jonathan Dubasin Osasuna Aktiv 149 / 145 40% 4 05.05.2028 -
Íñigo Vicente Racing Santander Aktiv 130 / 135 40% 1 05.05.2028 -
Ismaïla Sarr Crystal Palace Aktiv 149 / 147 40% 2 04.05.2028 -
Antony Betis Aktiv 154 / 159 40% 1 04.05.2028 -
Oihan Sancet Athletic Bilbao Aktiv 161 / 163 40% 4 03.05.2028 -
Jorge Salinas Racing Santander Aktiv 137 / 141 40% 1 02.05.2028 -
Marc Bernal Sevilla Aktiv 148 / 159 40% 1 30.04.2028 -
Héctor Fort Real Sociedad Aktiv 139 / 153 40% 1 30.04.2028 -
Ademola Lookman Atlético Madrid Aktiv 166 / 157 40% 1 27.04.2028 -
Samuel Edozie Southampton Aktiv 129 / 138 40% 1 26.04.2028 -
Mikel Jauregizar Athletic Bilbao Aktiv 167 / 163 40% 1 25.04.2028 -
Josh Acheampong Everton Aktiv 136 / 154 40% 1 25.04.2028 -
João Simões Sporting CP Aktiv 132 / 135 40% 1 24.04.2028 -
Roberto Fernández Braga Aktiv 145 / 141 40% 2 22.04.2028 -
Ryunosuke Sato Eibar Aktiv 132 / 134 40% 1 21.04.2028 -
Lucas Høgsberg RC Strasbourg Aktiv 139 / 143 40% 1 19.04.2028 -
Ben Gannon Doak Charlton Athletic Aktiv 148 / 147 40% 2 16.04.2028 -
Antonio Blanco Alavés Aktiv 146 / 152 40% 2 12.04.2028 -
Pablo Torre Mallorca Aktiv 146 / 156 40% 2 10.04.2028 -
Jaidon Anthony Derby County Aktiv 141 / 141 40% 2 09.04.2028 -
Ez Abde Betis Aktiv 155 / 151 40% 1 04.04.2028 -
Mikkel Damsgaard Brentford Aktiv 162 / 156 40% 1 02.04.2028 -
Pote Sporting CP Aktiv 159 / 163 40% 1 31.03.2028 -
Javi Puado Espanyol Aktiv 157 / 154 40% 1 27.03.2028 -
Christantus Uche Getafe Aktiv 138 / 148 40% 1 24.03.2028 -
Tyrhys Dolan Espanyol Aktiv 150 / 142 40% 1 21.03.2028 -
Thiago Almada LOSC Lille Aktiv 159 / 149 40% 1 21.03.2028 -
Geny Sporting CP Aktiv 155 / 156 40% 1 20.03.2028 -
Zito Luvumbo Cagliari Aktiv 139 / 134 40% 1 19.03.2028 -
Nicolás Castro Toluca Aktiv 135 / 137 40% 1 18.03.2028 Mehr Infos nötig
Danilo Botafogo Aktiv 157 / 137 40% 1 31.12.2027 -
Alexandro Bernabei Internacional Aktiv 130 / 138 40% 1 31.12.2027 -
Anthony Lozano Santos Laguna Aktiv 131 / 133 51% 1 12.07.2027 -
Ben Sheaf Wrexham Aktiv 144 / 125 40% 1 06.07.2027 -
Jordan Pickford Everton Aktiv 153 / 152 40% 1 28.06.2027 -
Ismael Díaz Leon Aktiv 138 / 134 51% 1 21.06.2027 -
Emiliano Martínez Chelsea Aktiv 167 / 156 40% 1 18.06.2027 -
Aune Heggebø West Bromwich Albion Aktiv 131 / 120 40% 5 29.05.2027 -
Ivo Mammini Beitar Jerusalem Aktiv 111 / 122 40% 4 29.05.2027 -
Shea Charles Southampton Aktiv 130 / 133 40% 1 29.05.2027 -
Kamory Doumbia Stade Brestois Aktiv 139 / 134 40% 1 27.05.2027 -
Jordan Zemura Udinese Aktiv 136 / 138 40% 2 25.05.2027 -
Hicham Boudaoui OGC Nice Aktiv 133 / 138 40% 1 25.05.2027 -
Tommaso Pobega Bologna Aktiv 133 / 142 40% 4 24.05.2027 -
Lamine Camara Monaco Aktiv 145 / 138 40% 2 24.05.2027 -
Kévin Danois AJ Auxerre Aktiv 125 / 143 40% 6 23.05.2027 -
Adrián Bernabé Parma Aktiv 131 / 133 40% 2 22.05.2027 -
Jackson Muleka Konyaspor Aktiv 111 / 134 40% 2 21.05.2027 -
Tyrese Campbell Sheffield United Aktiv 121 / 125 40% 8 21.05.2027 -
Sam Bell Bristol City Aktiv 128 / 127 40% 2 20.05.2027 -
Sidny Lopes Cabral Trabzonspor Aktiv 117 / 127 40% 3 19.05.2027 -
Malik Mothersille Stockport County Aktiv 111 / 120 40% 1 19.05.2027 -
Yousef Salech Cardiff City Aktiv 124 / 118 40% 3 17.05.2027 -
Cristian Cásseres Toulouse FC Aktiv 128 / 132 40% 1 17.05.2027 -
Oh Hyeon-Gyu Besiktas Aktiv 143 / 109 40% 4 14.05.2027 -
Ekain Orobengoa Real Sociedad Aktiv 99 / 100 40% 1 14.05.2027 -
Rafael Navarro Famalicao Aktiv 129 / 120 40% 2 12.05.2027 -
Víctor Gómez Braga Aktiv 144 / 137 40% 3 11.05.2027 -
Unai Gómez Udinese Aktiv 147 / 134 40% 3 11.05.2027 -
Sergi Altimira Sporting CP Aktiv 148 / 134 40% 4 07.05.2027 -
Bradley Locko Stade Brestois Aktiv 131 / 137 40% 1 07.05.2027 -
Marezi Portsmouth Aktiv 125 / 131 40% 1 03.05.2027 -
Caleb Yirenkyi Coventry City Aktiv 141 / 143 40% 2 02.05.2027 -
Ngal'Ayel Mukau LOSC Lille Aktiv 143 / 135 40% 5 02.05.2027 -
Yunus Akgün Galatasaray Aktiv 138 / 139 40% 5 01.05.2027 -
Iván Fresneda Sporting CP Aktiv 141 / 151 40% 4 29.04.2027 -
Gabriel Sara Galatasaray Aktiv 129 / 146 40% 2 26.04.2027 -
Stephen Amankona Aduana Stars Aktiv 115 / 83 40% 1 21.04.2027 -
Dale Taylor Blackpool Aktiv 122 / 120 40% 2 20.04.2027 -
Wilfried Singo Galatasaray Aktiv 139 / 154 40% 3 19.04.2027 -
Josh Coburn Millwall Aktiv 113 / 116 40% 2 17.04.2027 -
Ernest Muçi Trabzonspor Aktiv 124 / 132 40% 1 17.04.2027 -
Samson Baidoo RC Lens Aktiv 140 / 146 40% 1 14.04.2027 -
Caspar Jander Southampton Aktiv 120 / 126 40% 1 12.04.2027 -
Milan van Ewijk Coventry City Aktiv 142 / 125 40% 1 12.04.2027 -
Timothy Witsel FC Metz Aktiv 129 / 130 40% 1 11.04.2027 -
Tariq Lamptey Queens Park Rangers Aktiv 140 / 126 40% 1 08.04.2027 -
Mario Dorgeles Braga Aktiv 133 / 131 40% 2 07.04.2027 -
Ilyas Ansah Hull City Aktiv 127 / 135 40% 3 03.04.2027 -
Sergi Cardona KAA Gent Aktiv 152 / 149 40% 2 01.04.2027 -
Quentin Merlin Stade Rennais Aktiv 139 / 128 40% 1 30.03.2027 -
Wandile Duba ASO Chlef Aktiv 122 / 101 40% 1 28.03.2027 -
Andrea Colpani Monza Aktiv 137 / 141 40% 4 24.03.2027 -
Théodore Lefèvre Tours Aktiv 124 / 123 40% 1 22.03.2027 -
Habib Diarra Sunderland Aktiv 150 / 143 40% 1 21.03.2027 -
Samuel Dahl Benfica Aktiv 141 / 139 40% 2 18.03.2027 -
Lorent Tolaj Plymouth Argyle Aktiv 128 / 116 40% 1 17.03.2027 -
Duk Atlas Aktiv 118 / 122 40% 1 07.03.2027 -
Gustavo Silva Vitoria Guimaraes Aktiv 138 / 127 40% 1 05.03.2027 -
Majid Moharrami Rah Ahan Aktiv 112 / 111 40% 3 03.03.2027 -
Mattéo Guendouzi Fenerbahce Aktiv 141 / 153 40% 1 02.03.2027 -
Luis Caicedo Spartak 1918 Aktiv 99 / 88 40% 1 24.02.2027 -
Pedro Henrique Shakhtar Aktiv 133 / 129 40% 1 18.02.2027 -
Sorriso Famalicao Aktiv 123 / 134 40% 1 16.02.2027 -
Lucas Varaldo Morelia Aktiv 117 / 126 40% 1 12.02.2027 -
Gustavo Mantuan Zenit Aktiv 122 / 130 40% 2 09.02.2027 -
Brayan Gil Baltika Aktiv 123 / 121 40% 1 07.02.2027 -
Maxim Glushenkov Zenit Aktiv 134 / 134 40% 1 28.01.2027 -
Jhon Jhon Zenit Aktiv 141 / 133 40% 1 28.01.2027 -
Jens Petter Hauge Bodo/Glimt Aktiv 146 / 123 40% 1 25.01.2027 -
Mamadou Sangaré Brentford Aktiv 141 / 133 40% 1 18.01.2027 -
Joe Gelhardt Hull City Aktiv 130 / 127 40% 1 16.01.2027 -
Enrico Delprato Parma Aktiv 137 / 144 40% 1 03.01.2027 -
Nicolò Fagioli Fiorentina Aktiv 137 / 139 40% 1 01.01.2027 -
Leroy Sané Galatasaray Aktiv 149 / 163 40% 1 01.08.2026 -